createdAt,value
2022-12-11T00:01:36.676Z,94.03
2022-12-11T00:03:38.474Z,65.82
2022-12-11T00:05:41.640Z,59.65
2022-12-11T00:07:43.148Z,110.63
2022-12-11T00:09:44.622Z,97.65
2022-12-11T00:11:46.693Z,73.43
2022-12-11T00:13:48.304Z,66.50
2022-12-11T00:15:49.806Z,45.65
2022-12-11T00:17:51.230Z,109.90
2022-12-11T00:19:52.656Z,56.50
2022-12-11T00:21:54.070Z,67.75
2022-12-11T00:23:55.754Z,64.65
2022-12-11T00:25:57.721Z,66.82
2022-12-11T00:27:59.141Z,54.00
2022-12-11T00:30:00.595Z,49.33
2022-12-11T00:32:02.077Z,53.95
2022-12-11T00:34:03.730Z,47.78
2022-12-11T00:36:11.414Z,39.80
2022-12-11T00:38:16.063Z,73.82
2022-12-11T00:40:17.653Z,58.25
2022-12-11T00:42:19.052Z,72.18
2022-12-11T00:44:20.581Z,45.85
2022-12-11T00:46:22.080Z,63.17
2022-12-11T00:48:23.557Z,55.20
2022-12-11T00:50:25.050Z,71.88
2022-12-11T00:52:26.533Z,49.75
2022-12-11T00:54:28.000Z,32.67
2022-12-11T00:56:29.512Z,79.45
2022-12-11T00:58:30.921Z,36.33
2022-12-11T01:00:32.905Z,48.67
2022-12-11T01:02:34.693Z,55.28
2022-12-11T01:04:37.056Z,57.88
2022-12-11T01:06:39.301Z,51.22
2022-12-11T01:08:40.801Z,51.10
2022-12-11T01:10:42.259Z,56.47
2022-12-11T01:12:43.689Z,88.43
2022-12-11T01:14:45.194Z,42.50
2022-12-11T01:16:46.712Z,37.83
2022-12-11T01:18:48.211Z,58.03
2022-12-11T01:20:49.650Z,40.70
2022-12-11T01:22:56.255Z,70.95
2022-12-11T01:24:57.823Z,37.35
2022-12-11T01:26:59.285Z,49.38
2022-12-11T01:29:01.446Z,89.70
2022-12-11T01:31:07.417Z,44.05
2022-12-11T01:33:09.213Z,57.13
2022-12-11T01:35:11.819Z,64.80
2022-12-11T01:37:13.598Z,60.00
2022-12-11T01:39:15.121Z,54.83
2022-12-11T01:41:18.378Z,51.92
2022-12-11T01:43:19.911Z,41.83
2022-12-11T01:45:21.358Z,100.07
2022-12-11T01:47:22.767Z,97.05
2022-12-11T01:49:26.789Z,35.22
2022-12-11T01:51:31.333Z,54.42
2022-12-11T01:53:38.329Z,70.05
2022-12-11T01:55:40.480Z,48.50
2022-12-11T01:57:45.194Z,48.80
2022-12-11T01:59:46.915Z,54.78
2022-12-11T02:01:52.841Z,49.95
2022-12-11T02:03:55.979Z,43.88
2022-12-11T02:06:01.269Z,73.82
2022-12-11T02:08:03.390Z,77.22
2022-12-11T02:10:05.851Z,56.97
2022-12-11T02:12:28.425Z,33.35
2022-12-11T02:14:47.561Z,68.85
2022-12-11T02:16:56.620Z,53.88
2022-12-11T02:19:14.683Z,70.00
2022-12-11T02:21:26.626Z,70.38
2022-12-11T02:24:04.613Z,55.60
2022-12-11T02:26:24.771Z,31.73
2022-12-11T02:28:35.451Z,38.38
2022-12-11T02:30:39.170Z,34.65
2022-12-11T02:32:47.867Z,51.08
2022-12-11T02:34:54.076Z,72.50
2022-12-11T02:37:00.528Z,51.72
2022-12-11T02:39:03.685Z,31.83
2022-12-11T02:41:07.224Z,33.60
2022-12-11T02:43:11.644Z,69.50
2022-12-11T02:45:15.097Z,60.47
2022-12-11T02:47:19.600Z,54.05
2022-12-11T02:49:22.967Z,49.17
2022-12-11T02:51:28.773Z,45.30
2022-12-11T02:53:33.065Z,59.38
2022-12-11T02:55:37.941Z,38.78
2022-12-11T02:57:51.045Z,60.20
2022-12-11T02:59:52.519Z,40.30
2022-12-11T03:01:54.133Z,37.70
2022-12-11T03:03:56.559Z,51.67
2022-12-11T03:05:58.073Z,86.45
2022-12-11T03:07:59.721Z,68.50
2022-12-11T03:10:01.245Z,53.22
2022-12-11T03:12:02.780Z,42.63
2022-12-11T03:14:05.463Z,25.20
2022-12-11T03:16:21.942Z,32.80
2022-12-11T03:18:39.558Z,33.83
2022-12-11T03:20:45.622Z,35.45
2022-12-11T03:23:08.067Z,35.08
2022-12-11T03:25:21.484Z,34.78
2022-12-11T03:27:53.334Z,66.25
2022-12-11T03:30:08.672Z,49.05
2022-12-11T03:32:20.054Z,26.20
2022-12-11T03:34:31.140Z,32.80
2022-12-11T03:36:36.381Z,37.95
2022-12-11T03:38:44.072Z,41.90
2022-12-11T03:40:48.845Z,42.97
2022-12-11T03:42:52.610Z,30.88
2022-12-11T03:44:56.915Z,37.90
2022-12-11T03:47:01.396Z,36.95
2022-12-11T03:49:22.117Z,28.20
2022-12-11T03:51:24.245Z,33.30
2022-12-11T03:53:27.379Z,53.60
2022-12-11T03:55:30.469Z,66.13
2022-12-11T03:57:36.831Z,41.65
2022-12-11T03:59:38.490Z,62.00
2022-12-11T04:01:40.074Z,59.92
2022-12-11T04:03:41.649Z,45.90
2022-12-11T04:05:46.084Z,68.75
2022-12-11T04:07:47.598Z,50.28
2022-12-11T04:09:49.247Z,66.32
2022-12-11T04:11:50.746Z,40.55
2022-12-11T04:14:12.355Z,59.92
2022-12-11T04:16:13.826Z,59.15
2022-12-11T04:18:53.444Z,53.42
2022-12-11T04:23:37.559Z,42.67
2022-12-11T04:25:39.138Z,47.47
2022-12-11T04:27:49.361Z,45.03
2022-12-11T04:29:50.795Z,57.17
2022-12-11T04:31:52.299Z,22.08
2022-12-11T04:33:54.006Z,43.45
2022-12-11T04:35:58.182Z,53.03
2022-12-11T04:37:59.733Z,51.20
2022-12-11T04:40:01.170Z,21.95
2022-12-11T04:42:02.614Z,44.65
2022-12-11T04:44:04.294Z,33.58
2022-12-11T04:46:08.676Z,33.97
2022-12-11T04:48:10.187Z,29.95
2022-12-11T04:50:14.300Z,28.58
2022-12-11T04:52:15.716Z,21.85
2022-12-11T04:54:17.156Z,52.40
2022-12-11T04:56:18.810Z,40.78
2022-12-11T04:58:21.141Z,41.28
2022-12-11T05:00:22.930Z,31.40
2022-12-11T05:02:24.419Z,53.30
2022-12-11T05:04:26.542Z,39.13
2022-12-11T05:06:27.982Z,37.58
2022-12-11T05:08:29.472Z,31.80
2022-12-11T05:10:31.034Z,46.38
2022-12-11T05:12:33.138Z,55.95
2022-12-11T05:14:34.646Z,50.17
2022-12-11T05:16:36.085Z,28.45
2022-12-11T05:18:37.801Z,28.25
2022-12-11T05:20:39.246Z,58.33
2022-12-11T05:22:40.696Z,22.60
2022-12-11T05:24:42.677Z,61.45
2022-12-11T05:26:44.347Z,54.17
2022-12-11T05:28:46.292Z,51.85
2022-12-11T05:30:47.800Z,68.72
2022-12-11T05:32:49.241Z,37.88
2022-12-11T05:34:51.451Z,40.33
2022-12-11T05:36:52.950Z,30.20
2022-12-11T05:38:54.992Z,19.63
2022-12-11T05:40:58.932Z,17.80
2022-12-11T05:43:00.333Z,40.50
2022-12-11T05:45:01.752Z,31.05
2022-12-11T05:47:03.239Z,38.88
2022-12-11T05:49:04.838Z,44.08
2022-12-11T05:51:08.411Z,32.17
2022-12-11T05:53:09.941Z,34.50
2022-12-11T05:55:11.781Z,29.17
2022-12-11T05:57:13.401Z,42.13
2022-12-11T05:59:14.950Z,47.30
2022-12-11T06:01:34.982Z,32.22
2022-12-11T06:03:36.525Z,19.85
2022-12-11T06:05:42.239Z,33.50
2022-12-11T06:07:43.731Z,29.13
2022-12-11T06:09:45.204Z,22.20
2022-12-11T06:11:46.659Z,25.73
2022-12-11T06:13:48.321Z,21.05
2022-12-11T06:15:49.898Z,23.35
2022-12-11T06:17:51.380Z,34.38
2022-12-11T06:19:52.876Z,24.02
2022-12-11T06:21:54.322Z,22.67
2022-12-11T06:23:57.951Z,35.85
2022-12-11T06:25:59.429Z,43.03
2022-12-11T06:28:00.914Z,37.17
2022-12-11T06:30:02.404Z,24.27
2022-12-11T06:32:04.051Z,46.65
2022-12-11T06:34:06.041Z,42.28
2022-12-11T06:36:10.147Z,46.17
2022-12-11T06:38:11.639Z,45.67
2022-12-11T06:40:13.243Z,36.20
2022-12-11T06:42:16.510Z,45.47
2022-12-11T06:44:18.104Z,35.75
2022-12-11T06:46:20.229Z,35.53
2022-12-11T06:48:21.951Z,37.97
2022-12-11T06:50:23.353Z,38.40
2022-12-11T06:52:27.409Z,31.45
2022-12-11T06:54:28.864Z,32.78
2022-12-11T06:56:30.352Z,33.47
2022-12-11T06:58:33.570Z,38.75
2022-12-11T07:00:36.374Z,24.55
2022-12-11T07:02:37.921Z,25.10
2022-12-11T07:04:39.370Z,51.08
2022-12-11T07:06:40.843Z,26.50
2022-12-11T07:08:43.318Z,21.73
2022-12-11T07:10:44.845Z,27.23
2022-12-11T07:12:46.377Z,30.25
2022-12-11T07:14:47.947Z,29.13
2022-12-11T07:16:49.946Z,34.65
2022-12-11T07:18:51.689Z,44.38
2022-12-11T07:20:53.144Z,29.00
2022-12-11T07:22:54.837Z,20.67
2022-12-11T07:24:57.025Z,38.72
2022-12-11T07:26:58.646Z,39.63
2022-12-11T07:29:00.670Z,33.22
2022-12-11T07:31:18.151Z,38.50
2022-12-11T07:33:19.763Z,32.50
2022-12-11T07:35:21.294Z,35.97
2022-12-11T07:37:22.738Z,33.05
2022-12-11T07:39:24.493Z,43.63
2022-12-11T07:41:27.733Z,33.90
2022-12-11T07:43:29.320Z,47.15
2022-12-11T07:45:30.970Z,41.30
2022-12-11T07:47:33.515Z,26.58
2022-12-11T07:49:34.981Z,25.08
2022-12-11T07:51:38.025Z,25.42
2022-12-11T07:53:39.520Z,34.83
2022-12-11T07:55:40.964Z,35.60
2022-12-11T07:57:42.420Z,19.40
2022-12-11T07:59:43.947Z,27.08
2022-12-11T08:01:45.485Z,29.45
2022-12-11T08:03:47.319Z,31.73
2022-12-11T08:05:50.383Z,23.92
2022-12-11T08:07:51.885Z,23.80
2022-12-11T08:09:53.362Z,33.75
2022-12-11T08:11:54.851Z,19.13
2022-12-11T08:13:59.351Z,16.08
2022-12-11T08:16:04.528Z,26.67
2022-12-11T08:18:06.092Z,18.80
2022-12-11T08:20:08.536Z,32.67
2022-12-11T08:22:10.081Z,35.45
2022-12-11T08:24:11.523Z,31.55
2022-12-11T08:26:15.436Z,26.80
2022-12-11T08:28:16.885Z,22.95
2022-12-11T08:30:18.570Z,28.02
2022-12-11T08:32:20.377Z,51.42
2022-12-11T08:34:22.390Z,22.17
2022-12-11T08:36:25.046Z,38.63
2022-12-11T08:38:26.784Z,34.50
2022-12-11T08:40:28.315Z,29.33
2022-12-11T08:42:29.915Z,29.23
2022-12-11T08:44:31.424Z,28.00
2022-12-11T08:46:33.188Z,35.42
2022-12-11T08:48:35.878Z,41.65
2022-12-11T08:50:37.601Z,39.28
2022-12-11T08:52:39.408Z,31.60
2022-12-11T08:54:42.242Z,26.42
2022-12-11T08:56:43.701Z,29.38
2022-12-11T08:58:45.782Z,38.83
2022-12-11T09:00:47.520Z,38.60
2022-12-11T09:02:49.111Z,41.63
2022-12-11T09:04:50.785Z,33.78
2022-12-11T09:06:52.220Z,31.05
2022-12-11T09:08:54.572Z,35.40
2022-12-11T09:10:56.192Z,32.08
2022-12-11T09:12:57.793Z,31.60
2022-12-11T09:14:59.271Z,31.83
2022-12-11T09:17:01.062Z,41.85
2022-12-11T09:19:02.517Z,37.10
2022-12-11T09:21:13.596Z,38.53
2022-12-11T09:23:15.206Z,37.00
2022-12-11T09:25:16.799Z,35.58
2022-12-11T09:27:19.950Z,23.63
2022-12-11T09:29:21.529Z,37.78
2022-12-11T09:31:28.353Z,28.65
2022-12-11T09:33:29.791Z,28.08
2022-12-11T09:35:31.230Z,29.05
2022-12-11T09:37:33.693Z,32.72
2022-12-11T09:39:35.551Z,22.02
2022-12-11T09:42:01.833Z,17.95
2022-12-11T09:44:11.344Z,38.47
2022-12-11T09:46:16.591Z,27.20
2022-12-11T09:48:22.120Z,34.17
2022-12-11T09:50:31.090Z,22.60
2022-12-11T09:52:38.380Z,42.45
2022-12-11T09:54:47.869Z,26.70
2022-12-11T09:56:57.787Z,47.45
2022-12-11T09:59:03.200Z,50.78
2022-12-11T10:01:18.166Z,33.80
2022-12-11T10:03:42.957Z,43.85
2022-12-11T10:06:04.802Z,45.40
2022-12-11T10:08:47.816Z,58.28
2022-12-11T10:11:22.816Z,49.67
2022-12-11T10:13:38.782Z,80.20
2022-12-11T10:16:01.235Z,55.70
2022-12-11T10:18:05.520Z,39.38
2022-12-11T10:20:10.006Z,39.05
2022-12-11T10:22:20.664Z,42.17
2022-12-11T10:25:12.698Z,38.70
2022-12-11T10:27:21.354Z,29.80
2022-12-11T10:29:22.837Z,43.38
2022-12-11T10:31:49.526Z,28.33
2022-12-11T10:34:04.970Z,25.20
2022-12-11T10:36:08.520Z,28.15
2022-12-11T10:38:16.221Z,28.67
2022-12-11T10:40:20.605Z,38.35
2022-12-11T10:42:23.507Z,30.17
2022-12-11T10:44:30.176Z,19.63
2022-12-11T10:46:33.385Z,26.13
2022-12-11T10:48:34.935Z,25.80
2022-12-11T10:50:37.813Z,24.95
2022-12-11T10:52:44.972Z,18.52
2022-12-11T10:54:53.022Z,22.65
2022-12-11T10:56:55.499Z,26.98
2022-12-11T10:58:58.766Z,39.20
2022-12-11T11:01:14.997Z,39.22
2022-12-11T11:03:36.732Z,20.25
2022-12-11T11:05:38.523Z,30.80
2022-12-11T11:07:40.179Z,29.15
2022-12-11T11:09:41.842Z,28.27
2022-12-11T11:11:50.385Z,28.77
2022-12-11T11:13:52.098Z,19.45
2022-12-11T11:16:07.127Z,12.93
2022-12-11T11:18:17.015Z,17.17
2022-12-11T11:20:20.561Z,26.92
2022-12-11T11:22:22.174Z,20.17
2022-12-11T11:24:41.581Z,13.63
2022-12-11T11:27:12.195Z,26.40
2022-12-11T11:29:05.240Z,27.27
2022-12-11T11:31:10.375Z,28.40
2022-12-11T11:33:15.646Z,18.23
2022-12-11T11:35:20.835Z,32.83
2022-12-11T11:37:31.147Z,19.17
2022-12-11T11:39:45.215Z,22.77
2022-12-11T11:41:55.879Z,15.65
2022-12-11T11:44:07.376Z,29.13
2022-12-11T11:46:31.226Z,17.27
2022-12-11T11:48:48.251Z,18.33
2022-12-11T11:50:50.586Z,23.63
2022-12-11T11:53:00.359Z,22.15
2022-12-11T11:55:06.646Z,37.13
2022-12-11T11:57:35.256Z,34.92
2022-12-11T11:59:44.812Z,16.70
2022-12-11T12:01:46.701Z,12.70
2022-12-11T12:03:50.545Z,30.35
2022-12-11T12:06:10.943Z,28.88
2022-12-11T12:08:26.489Z,32.50
2022-12-11T12:10:51.731Z,36.17
2022-12-11T12:16:01.876Z,36.47
2022-12-11T12:18:25.207Z,43.70
2022-12-11T12:20:43.786Z,39.58
2022-12-11T12:23:00.341Z,19.33
2022-12-11T12:25:21.554Z,29.27
2022-12-11T12:28:04.486Z,27.05
2022-12-11T12:30:12.654Z,24.85
2022-12-11T12:32:25.727Z,12.55
2022-12-11T12:34:56.265Z,28.80
2022-12-11T12:37:12.761Z,28.25
2022-12-11T12:39:21.959Z,30.95
2022-12-11T12:41:55.050Z,35.63
2022-12-11T12:44:24.038Z,35.17
2022-12-11T12:46:52.119Z,32.17
2022-12-11T12:48:56.698Z,26.42
2022-12-11T12:50:58.878Z,32.17
2022-12-11T12:53:00.815Z,20.98
2022-12-11T12:55:22.969Z,32.38
2022-12-11T12:57:24.545Z,18.77
2022-12-11T12:59:27.654Z,39.40
2022-12-11T13:01:30.534Z,34.33
2022-12-11T13:03:37.458Z,33.53
2022-12-11T13:05:43.205Z,26.38
2022-12-11T13:07:54.281Z,29.15
2022-12-11T13:10:23.133Z,37.38
2022-12-11T13:12:34.071Z,28.48
2022-12-11T13:14:35.546Z,43.30
2022-12-11T13:16:42.992Z,49.78
2022-12-11T13:18:48.470Z,38.08
2022-12-11T13:20:51.166Z,38.03
2022-12-11T13:23:10.494Z,39.63
2022-12-11T13:25:28.603Z,40.30
2022-12-11T13:27:29.964Z,41.22
2022-12-11T13:29:36.479Z,40.00
2022-12-11T13:31:40.211Z,36.28
2022-12-11T13:33:47.182Z,34.00
2022-12-11T13:35:48.970Z,31.88
2022-12-11T13:37:53.863Z,34.53
2022-12-11T13:39:56.006Z,40.70
2022-12-11T13:42:05.425Z,44.80
2022-12-11T13:44:08.255Z,41.25
2022-12-11T13:46:12.713Z,33.30
2022-12-11T13:48:28.956Z,35.45
2022-12-11T13:50:35.114Z,33.28
2022-12-11T13:52:36.936Z,35.92
2022-12-11T13:54:47.972Z,31.90
2022-12-11T13:57:01.506Z,47.15
2022-12-11T13:59:03.354Z,39.53
2022-12-11T14:01:11.220Z,36.80
2022-12-11T14:03:12.962Z,44.97
2022-12-11T14:05:15.559Z,35.10
2022-12-11T14:07:24.969Z,39.60
2022-12-11T14:09:27.869Z,39.83
2022-12-11T14:11:43.463Z,45.00
2022-12-11T14:13:45.714Z,40.33
2022-12-11T14:15:47.564Z,37.67
2022-12-11T14:17:51.915Z,38.95
2022-12-11T14:19:56.027Z,43.45
2022-12-11T14:22:03.237Z,36.65
2022-12-11T14:24:06.689Z,38.17
2022-12-11T14:26:20.807Z,36.28
2022-12-11T14:28:27.467Z,26.23
2022-12-11T14:30:33.274Z,32.47
2022-12-11T14:32:43.034Z,33.58
2022-12-11T14:34:47.799Z,37.35
2022-12-11T14:36:49.692Z,37.05
2022-12-11T14:38:55.975Z,41.63
2022-12-11T14:41:03.430Z,36.45
2022-12-11T14:43:22.042Z,34.80
2022-12-11T14:45:34.901Z,36.13
2022-12-11T14:47:42.353Z,26.13
2022-12-11T14:49:50.017Z,35.53
2022-12-11T14:51:55.177Z,33.70
2022-12-11T14:53:57.481Z,43.10
2022-12-11T14:56:02.912Z,62.53
2022-12-11T14:58:13.247Z,34.15
2022-12-11T15:00:29.443Z,36.50
2022-12-11T15:02:36.559Z,40.65
2022-12-11T15:04:38.343Z,39.35
2022-12-11T15:06:47.871Z,37.90
2022-12-11T15:11:06.453Z,41.17
2022-12-11T15:13:09.200Z,46.35
2022-12-11T15:15:15.935Z,49.47
2022-12-11T15:17:18.800Z,43.13
2022-12-11T15:19:25.481Z,49.13
2022-12-11T15:21:31.987Z,56.90
2022-12-11T15:23:49.217Z,59.67
2022-12-11T15:25:53.782Z,54.97
2022-12-11T15:27:58.103Z,63.00
2022-12-11T15:29:59.773Z,72.35
2022-12-11T15:32:04.799Z,87.50
2022-12-11T15:34:22.049Z,66.45
2022-12-11T15:36:35.700Z,73.28
2022-12-11T15:38:40.711Z,69.25
2022-12-11T15:40:42.464Z,65.18
2022-12-11T15:42:44.056Z,45.72
2022-12-11T15:44:45.619Z,58.47
2022-12-11T15:46:47.178Z,56.63
2022-12-11T15:48:49.473Z,55.67
2022-12-11T15:50:51.145Z,55.50
2022-12-11T15:52:54.452Z,56.97
2022-12-11T15:54:55.920Z,61.20
2022-12-11T15:56:58.006Z,61.88
2022-12-11T15:59:04.601Z,55.22
2022-12-11T16:01:06.321Z,49.13
2022-12-11T16:03:12.042Z,50.80
2022-12-11T16:05:14.786Z,52.38
2022-12-11T16:07:18.948Z,52.67
2022-12-11T16:09:20.376Z,56.47
2022-12-11T16:11:21.870Z,59.10
2022-12-11T16:13:23.396Z,62.67
2022-12-11T16:15:26.282Z,53.10
2022-12-11T16:17:27.836Z,59.03
2022-12-11T16:19:29.319Z,54.72
2022-12-11T16:21:30.733Z,49.88
2022-12-11T16:23:32.585Z,84.10
2022-12-11T16:25:36.545Z,159.23
2022-12-11T16:27:37.958Z,124.00
2022-12-11T16:29:41.278Z,256.83
2022-12-11T16:31:43.210Z,127.57
2022-12-11T16:33:44.705Z,131.80
2022-12-11T16:35:46.148Z,113.13
2022-12-11T16:37:51.636Z,124.18
2022-12-11T16:39:53.176Z,77.88
2022-12-11T16:41:54.633Z,81.05
2022-12-11T16:43:56.066Z,71.47
2022-12-11T16:45:57.608Z,111.15
2022-12-11T16:48:02.040Z,75.63
2022-12-11T16:50:04.166Z,84.00
2022-12-11T16:52:05.628Z,77.40
2022-12-11T16:54:07.274Z,79.47
2022-12-11T16:56:09.430Z,68.65
2022-12-11T16:58:15.948Z,71.30
2022-12-11T17:00:17.708Z,78.07
2022-12-11T17:02:20.696Z,75.95
2022-12-11T17:04:22.356Z,79.80
2022-12-11T17:06:23.964Z,75.63
2022-12-11T17:08:25.895Z,110.88
2022-12-11T17:10:27.394Z,102.07
2022-12-11T17:12:29.641Z,91.20
2022-12-11T17:14:31.316Z,91.28
2022-12-11T17:16:34.029Z,91.32
2022-12-11T17:18:35.756Z,86.90
2022-12-11T17:20:44.805Z,90.60
2022-12-11T17:22:46.351Z,56.63
2022-12-11T17:24:48.018Z,74.68
2022-12-11T17:26:49.521Z,92.22
2022-12-11T17:28:52.150Z,87.30
2022-12-11T17:30:53.816Z,68.75
2022-12-11T17:32:55.439Z,63.95
2022-12-11T17:34:56.915Z,83.97
2022-12-11T17:36:58.472Z,63.90
2022-12-11T17:38:59.997Z,71.15
2022-12-11T17:41:06.511Z,87.95
2022-12-11T17:43:09.420Z,86.55
2022-12-11T17:45:11.680Z,114.25
2022-12-11T17:47:13.409Z,82.65
2022-12-11T17:49:15.168Z,91.22
2022-12-11T17:51:22.039Z,71.43
2022-12-11T17:53:24.855Z,64.90
2022-12-11T17:55:26.563Z,58.42
2022-12-11T17:57:28.205Z,86.45
2022-12-11T17:59:29.718Z,67.25
2022-12-11T18:01:31.344Z,63.70
2022-12-11T18:03:32.941Z,65.93
2022-12-11T18:05:35.105Z,71.15
2022-12-11T18:07:37.663Z,71.85
2022-12-11T18:09:41.924Z,87.80
2022-12-11T18:11:43.422Z,81.80
2022-12-11T18:13:45.961Z,81.57
2022-12-11T18:15:48.621Z,124.75
2022-12-11T18:17:50.157Z,101.93
2022-12-11T18:19:51.723Z,155.80
2022-12-11T18:21:54.132Z,105.68
2022-12-11T18:23:56.582Z,204.00
2022-12-11T18:25:58.214Z,131.38
2022-12-11T18:28:00.201Z,119.72
2022-12-11T18:30:01.691Z,354.75
2022-12-11T18:32:03.442Z,116.10
2022-12-11T18:34:06.217Z,113.45
2022-12-11T18:36:09.008Z,113.65
2022-12-11T18:38:10.573Z,72.18
2022-12-11T18:40:12.445Z,83.63
2022-12-11T18:44:35.638Z,68.68
2022-12-11T18:46:39.347Z,74.50
2022-12-11T18:48:43.224Z,91.40
2022-12-11T18:50:50.313Z,85.72
2022-12-11T18:52:55.594Z,75.20
2022-12-11T18:54:57.239Z,81.28
2022-12-11T18:56:58.943Z,67.88
2022-12-11T18:59:00.615Z,76.05
2022-12-11T19:01:09.263Z,72.75
2022-12-11T19:03:12.112Z,62.22
2022-12-11T19:05:14.061Z,74.28
2022-12-11T19:07:15.751Z,68.75
2022-12-11T19:09:17.808Z,82.10
2022-12-11T19:11:22.835Z,92.15
2022-12-11T19:13:24.396Z,115.90
2022-12-11T19:15:27.607Z,81.00
2022-12-11T19:17:29.164Z,79.68
2022-12-11T19:19:30.943Z,94.28
2022-12-11T19:21:34.284Z,68.95
2022-12-11T19:23:36.429Z,82.00
2022-12-11T19:25:48.017Z,73.28
2022-12-11T19:27:50.521Z,73.30
2022-12-11T19:29:52.075Z,88.13
2022-12-11T19:31:55.522Z,67.38
2022-12-11T19:33:57.452Z,68.20
2022-12-11T19:36:03.866Z,66.38
2022-12-11T19:38:05.588Z,78.57
2022-12-11T19:40:09.455Z,85.10
2022-12-11T19:42:11.072Z,71.05
2022-12-11T19:44:12.713Z,62.85
2022-12-11T19:46:15.395Z,65.22
2022-12-11T19:48:16.997Z,60.10
2022-12-11T19:50:18.638Z,67.43
2022-12-11T19:52:20.314Z,68.63
2022-12-11T19:54:22.068Z,71.88
2022-12-11T19:56:24.802Z,72.55
2022-12-11T19:58:26.538Z,56.83
2022-12-11T20:00:28.223Z,60.45
2022-12-11T20:02:30.088Z,63.88
2022-12-11T20:04:31.709Z,63.58
2022-12-11T20:06:35.399Z,121.95
2022-12-11T20:08:46.019Z,178.85
2022-12-11T20:10:47.914Z,141.27
2022-12-11T20:12:49.496Z,120.78
2022-12-11T20:14:51.049Z,121.30
2022-12-11T20:17:14.452Z,118.28
2022-12-11T20:19:15.694Z,127.70
2022-12-11T20:21:18.700Z,134.75
2022-12-11T20:23:20.237Z,182.35
2022-12-11T20:25:22.212Z,314.33
2022-12-11T20:27:23.767Z,179.50
2022-12-11T20:29:25.235Z,167.93
2022-12-11T20:31:27.518Z,237.95
2022-12-11T20:33:28.989Z,138.35
2022-12-11T20:35:30.864Z,108.38
2022-12-11T20:37:32.908Z,110.78
2022-12-11T20:39:35.622Z,120.03
2022-12-11T20:41:37.274Z,97.32
2022-12-11T20:43:39.451Z,118.32
2022-12-11T20:45:41.171Z,143.00
2022-12-11T20:47:42.850Z,260.98
2022-12-11T20:49:44.503Z,165.45
2022-12-11T20:51:46.094Z,139.65
2022-12-11T20:53:48.208Z,99.40
2022-12-11T20:55:49.877Z,96.97
2022-12-11T20:57:51.337Z,93.55
2022-12-11T20:59:52.963Z,101.18
2022-12-11T21:01:54.614Z,78.40
2022-12-11T21:03:57.020Z,93.40
2022-12-11T21:05:58.915Z,77.38
2022-12-11T21:08:00.411Z,95.38
2022-12-11T21:10:02.050Z,101.90
2022-12-11T21:12:04.936Z,103.22
2022-12-11T21:14:06.535Z,82.82
2022-12-11T21:16:09.371Z,85.50
2022-12-11T21:18:10.879Z,83.07
2022-12-11T21:20:12.336Z,82.57
2022-12-11T21:22:14.036Z,98.97
2022-12-11T21:24:21.447Z,198.68
2022-12-11T21:26:23.817Z,123.68
2022-12-11T21:28:27.321Z,114.93
2022-12-11T21:30:32.521Z,99.68
2022-12-11T21:32:35.369Z,128.25
2022-12-11T21:34:37.814Z,140.27
2022-12-11T21:36:39.831Z,108.15
2022-12-11T21:38:43.555Z,108.18
2022-12-11T21:40:44.993Z,162.00
2022-12-11T21:42:46.663Z,138.00
2022-12-11T21:47:09.681Z,117.88
2022-12-11T21:49:12.029Z,124.18
2022-12-11T21:51:16.049Z,146.30
2022-12-11T21:53:17.497Z,94.15
2022-12-11T21:55:19.374Z,96.45
2022-12-11T21:57:26.121Z,86.15
2022-12-11T21:59:28.664Z,80.13
2022-12-11T22:01:35.106Z,90.95
2022-12-11T22:03:36.998Z,90.32
2022-12-11T22:05:38.445Z,89.28
2022-12-11T22:07:39.861Z,92.13
2022-12-11T22:09:41.265Z,98.45
2022-12-11T22:11:45.159Z,180.05
2022-12-11T22:13:47.235Z,129.05
2022-12-11T22:15:48.882Z,102.30
2022-12-11T22:17:50.410Z,202.05
2022-12-11T22:19:52.057Z,94.97
2022-12-11T22:21:53.610Z,98.22
2022-12-11T22:23:55.155Z,102.88
2022-12-11T22:25:56.933Z,76.65
2022-12-11T22:27:58.424Z,98.22
2022-12-11T22:30:00.025Z,72.03
2022-12-11T22:32:01.857Z,78.32
2022-12-11T22:34:03.355Z,79.53
2022-12-11T22:36:04.993Z,115.43
2022-12-11T22:38:06.871Z,97.53
2022-12-11T22:40:08.698Z,80.68
2022-12-11T22:42:10.260Z,87.60
2022-12-11T22:44:17.181Z,90.85
2022-12-11T22:46:20.665Z,88.28
2022-12-11T22:48:24.491Z,68.88
2022-12-11T22:50:25.933Z,65.15
2022-12-11T22:52:27.499Z,66.65
2022-12-11T22:54:28.976Z,84.15
2022-12-11T22:56:30.485Z,71.63
2022-12-11T22:58:32.292Z,73.32
2022-12-11T23:00:34.236Z,68.13
2022-12-11T23:02:37.410Z,66.15
2022-12-11T23:04:38.938Z,64.68
2022-12-11T23:06:40.594Z,67.75
2022-12-11T23:08:43.242Z,65.32
2022-12-11T23:10:44.841Z,67.15
2022-12-11T23:12:46.321Z,78.03
2022-12-11T23:14:47.822Z,72.30
2022-12-11T23:16:49.326Z,78.47
2022-12-11T23:18:51.210Z,69.35
2022-12-11T23:20:52.816Z,67.63
2022-12-11T23:22:54.384Z,76.40
2022-12-11T23:24:55.796Z,92.07
2022-12-11T23:26:57.319Z,74.50
2022-12-11T23:28:59.584Z,76.70
2022-12-11T23:31:01.118Z,80.10
2022-12-11T23:33:02.792Z,76.75
2022-12-11T23:35:05.242Z,72.75
2022-12-11T23:37:06.814Z,80.50
2022-12-11T23:39:08.313Z,79.07
2022-12-11T23:41:13.168Z,74.13
2022-12-11T23:43:14.762Z,84.65
2022-12-11T23:45:16.348Z,73.60
2022-12-11T23:47:17.811Z,75.80
2022-12-11T23:49:19.273Z,79.60
2022-12-11T23:51:22.390Z,66.78
2022-12-11T23:53:23.832Z,71.80
2022-12-11T23:55:25.421Z,77.70
2022-12-11T23:57:26.894Z,73.60
2022-12-11T23:59:28.332Z,78.28
